Aviation Digital Data Service (ADDS)

Output produced by METARs form (2253 UTC 29 July 2014)
found at http://aviationweather.gov/adds/metars/
 
KSLK 291720Z 2918/3018 22006KT P6SM SCT025 BKN035 
     FM300200 VRB03KT P6SM SCT040 
     FM300600 00000KT 1/2SM FG OVC001 
     FM301200 22004KT P6SM SCT045